createdAt,value
2023-10-09T00:00:51.712Z,4.53
2023-10-09T00:02:56.181Z,6.63
2023-10-09T00:04:59.704Z,5.07
2023-10-09T00:07:04.128Z,5.87
2023-10-09T00:09:26.874Z,3.27
2023-10-09T00:11:31.186Z,6.37
2023-10-09T00:13:34.220Z,3.17
2023-10-09T00:15:37.439Z,3.90
2023-10-09T00:17:40.595Z,7.67
2023-10-09T00:19:45.526Z,4.70
2023-10-09T00:21:48.718Z,4.57
2023-10-09T00:23:54.290Z,4.60
2023-10-09T00:26:09.630Z,5.40
2023-10-09T00:28:14.104Z,7.17
2023-10-09T00:30:19.315Z,3.10
2023-10-09T00:32:23.835Z,6.27
2023-10-09T00:34:27.595Z,4.03
2023-10-09T00:36:33.806Z,10.40
2023-10-09T00:38:37.213Z,5.10
2023-10-09T00:40:48.844Z,5.77
2023-10-09T00:42:56.879Z,4.70
2023-10-09T00:45:04.445Z,3.63
2023-10-09T00:47:21.425Z,5.17
2023-10-09T00:49:24.362Z,4.70
2023-10-09T00:51:28.250Z,9.40
2023-10-09T00:53:34.203Z,5.13
2023-10-09T00:55:45.906Z,8.43
2023-10-09T00:57:57.894Z,9.07
2023-10-09T01:00:01.341Z,3.43
2023-10-09T01:02:06.304Z,7.87
2023-10-09T01:04:10.466Z,7.30
2023-10-09T01:06:22.385Z,4.07
2023-10-09T01:08:31.119Z,10.40
2023-10-09T01:10:52.226Z,6.83
2023-10-09T01:12:56.335Z,7.63
2023-10-09T01:15:01.047Z,5.50
2023-10-09T01:17:04.689Z,8.00
2023-10-09T01:19:14.290Z,5.90
2023-10-09T01:21:17.339Z,5.00
2023-10-09T01:23:21.686Z,5.70
2023-10-09T01:25:24.682Z,4.20
2023-10-09T01:27:33.509Z,4.80
2023-10-09T01:29:36.677Z,4.90
2023-10-09T01:31:44.853Z,7.23
2023-10-09T01:33:48.934Z,20.60
2023-10-09T01:35:57.243Z,6.93
2023-10-09T01:38:00.613Z,4.80
2023-10-09T01:40:26.009Z,5.37
2023-10-09T01:42:36.200Z,7.13
2023-10-09T01:44:44.634Z,9.67
2023-10-09T01:46:47.075Z,10.30
2023-10-09T01:48:50.089Z,6.83
2023-10-09T01:50:54.741Z,4.77
2023-10-09T01:52:57.673Z,6.50
2023-10-09T01:55:07.351Z,4.33
2023-10-09T01:57:13.802Z,5.97
2023-10-09T01:59:16.980Z,7.20
2023-10-09T02:01:18.955Z,5.80
2023-10-09T02:03:26.054Z,9.20
2023-10-09T02:05:34.613Z,6.50
2023-10-09T02:07:45.213Z,2.83
2023-10-09T02:09:48.601Z,4.50
2023-10-09T02:11:52.322Z,7.23
2023-10-09T02:14:02.135Z,11.20
2023-10-09T02:16:16.079Z,5.83
2023-10-09T02:18:19.882Z,8.43
2023-10-09T02:20:29.790Z,5.53
2023-10-09T02:22:35.857Z,6.13
2023-10-09T02:24:51.893Z,8.43
2023-10-09T02:27:08.440Z,6.20
2023-10-09T02:29:19.461Z,5.20
2023-10-09T02:31:24.349Z,11.10
2023-10-09T02:33:29.720Z,6.83
2023-10-09T02:35:39.635Z,9.20
2023-10-09T02:37:42.548Z,11.93
2023-10-09T02:39:49.290Z,8.87
2023-10-09T02:41:52.543Z,4.13
2023-10-09T02:43:56.665Z,8.70
2023-10-09T02:45:59.928Z,9.03
2023-10-09T02:48:11.931Z,8.40
2023-10-09T02:50:21.058Z,6.00
2023-10-09T02:52:26.573Z,4.43
2023-10-09T02:54:36.814Z,7.73
2023-10-09T02:56:44.103Z,7.53
2023-10-09T02:58:49.301Z,6.30
2023-10-09T03:00:52.824Z,8.20
2023-10-09T03:02:59.390Z,8.53
2023-10-09T03:05:04.519Z,9.63
2023-10-09T03:07:08.296Z,7.17
2023-10-09T03:09:18.425Z,6.70
2023-10-09T03:11:20.397Z,7.17
2023-10-09T03:13:23.267Z,7.13
2023-10-09T03:15:26.184Z,8.40
2023-10-09T03:17:29.207Z,4.57
2023-10-09T03:19:38.472Z,5.10
2023-10-09T03:21:41.837Z,7.20
2023-10-09T03:23:45.334Z,9.10
2023-10-09T03:25:48.214Z,12.43
2023-10-09T03:27:51.599Z,9.37
2023-10-09T03:29:55.480Z,11.13
2023-10-09T03:31:57.920Z,7.73
2023-10-09T03:34:00.942Z,7.37
2023-10-09T03:36:08.567Z,9.43
2023-10-09T03:38:14.533Z,8.30
2023-10-09T03:40:18.957Z,9.97
2023-10-09T03:42:23.582Z,11.33
2023-10-09T03:44:29.467Z,7.30
2023-10-09T03:46:34.574Z,8.10
2023-10-09T03:48:37.541Z,8.10
2023-10-09T03:50:44.178Z,6.17
2023-10-09T03:52:48.428Z,8.13
2023-10-09T03:54:51.608Z,13.73
2023-10-09T03:56:55.929Z,7.93
2023-10-09T03:58:58.838Z,11.43
2023-10-09T04:01:00.922Z,9.93
2023-10-09T04:03:06.706Z,7.50
2023-10-09T04:05:10.591Z,8.88
2023-10-09T04:07:13.522Z,11.20
2023-10-09T04:09:36.921Z,10.23
2023-10-09T04:11:43.798Z,10.67
2023-10-09T04:13:48.054Z,12.27
2023-10-09T04:15:54.234Z,24.33
2023-10-09T04:17:58.209Z,10.47
2023-10-09T04:20:18.759Z,16.17
2023-10-09T04:22:27.797Z,15.93
2023-10-09T04:24:42.217Z,10.97
2023-10-09T04:26:46.391Z,10.70
2023-10-09T04:28:52.849Z,14.40
2023-10-09T04:30:56.783Z,14.90
2023-10-09T04:33:06.271Z,27.20
2023-10-09T04:35:24.474Z,31.70
2023-10-09T04:37:37.961Z,58.40
2023-10-09T04:39:48.070Z,55.00
2023-10-09T04:42:00.615Z,53.63
2023-10-09T04:44:20.179Z,66.77
2023-10-09T04:46:24.582Z,81.07
2023-10-09T04:48:34.030Z,74.97
2023-10-09T04:51:07.799Z,75.73
2023-10-09T04:53:23.429Z,74.47
2023-10-09T04:55:28.431Z,78.93
2023-10-09T04:57:31.234Z,79.77
2023-10-09T04:59:47.053Z,73.33
2023-10-09T05:01:59.044Z,75.77
2023-10-09T05:04:05.587Z,76.47
2023-10-09T05:06:22.134Z,70.67
2023-10-09T05:08:29.936Z,73.03
2023-10-09T05:10:33.400Z,88.80
2023-10-09T05:12:42.292Z,77.13
2023-10-09T05:15:05.945Z,69.10
2023-10-09T05:17:16.775Z,63.83
2023-10-09T05:19:34.663Z,78.77
2023-10-09T05:21:46.536Z,85.10
2023-10-09T05:23:49.984Z,181.20
2023-10-09T05:25:59.973Z,85.30
2023-10-09T05:28:22.160Z,67.50
2023-10-09T05:30:28.094Z,71.20
2023-10-09T05:32:31.293Z,69.10
2023-10-09T05:34:56.915Z,67.33
2023-10-09T05:37:12.120Z,69.03
2023-10-09T05:39:23.660Z,68.10
2023-10-09T05:41:48.571Z,68.30
2023-10-09T05:44:09.144Z,98.00
2023-10-09T05:46:17.055Z,74.10
2023-10-09T05:48:34.095Z,79.07
2023-10-09T05:50:39.006Z,65.97
2023-10-09T05:53:05.554Z,71.00
2023-10-09T05:55:37.724Z,73.77
2023-10-09T05:57:55.842Z,69.10
2023-10-09T06:00:17.448Z,58.50
2023-10-09T06:02:35.690Z,66.27
2023-10-09T06:04:55.697Z,65.27
2023-10-09T06:06:58.483Z,70.40
2023-10-09T06:09:29.792Z,61.73
2023-10-09T06:11:40.813Z,69.57
2023-10-09T06:13:48.075Z,69.03
2023-10-09T06:16:10.315Z,73.73
2023-10-09T06:18:27.128Z,71.33
2023-10-09T06:21:04.715Z,62.83
2023-10-09T06:23:16.965Z,73.87
2023-10-09T06:25:20.179Z,65.70
2023-10-09T06:27:44.510Z,65.40
2023-10-09T06:30:14.109Z,71.17
2023-10-09T06:32:38.256Z,67.23
2023-10-09T06:34:45.905Z,64.17
2023-10-09T06:36:55.027Z,64.33
2023-10-09T06:39:23.917Z,66.07
2023-10-09T06:41:36.007Z,70.47
2023-10-09T06:43:44.301Z,62.83
2023-10-09T06:45:55.770Z,66.67
2023-10-09T06:48:09.028Z,76.03
2023-10-09T06:50:25.798Z,57.57
2023-10-09T06:52:49.344Z,59.43
2023-10-09T06:54:52.224Z,70.38
2023-10-09T06:57:15.131Z,64.13
2023-10-09T06:59:22.279Z,73.37
2023-10-09T07:01:40.772Z,60.93
2023-10-09T07:03:54.246Z,70.03
2023-10-09T07:06:06.193Z,68.90
2023-10-09T07:08:29.627Z,66.37
2023-10-09T07:10:40.535Z,68.27
2023-10-09T07:12:45.577Z,71.80
2023-10-09T07:15:02.787Z,65.83
2023-10-09T07:17:17.230Z,62.90
2023-10-09T07:19:36.440Z,74.40
2023-10-09T07:21:40.270Z,72.97
2023-10-09T07:23:50.098Z,64.90
2023-10-09T07:25:59.731Z,70.53
2023-10-09T07:28:03.831Z,76.67
2023-10-09T07:30:28.906Z,73.13
2023-10-09T07:32:33.625Z,80.37
2023-10-09T07:34:50.457Z,71.17
2023-10-09T07:36:57.748Z,66.33
2023-10-09T07:39:00.908Z,61.07
2023-10-09T07:41:31.082Z,68.83
2023-10-09T07:43:40.061Z,59.83
2023-10-09T07:46:00.442Z,59.27
2023-10-09T07:48:07.088Z,80.53
2023-10-09T07:50:12.376Z,70.90
2023-10-09T07:52:15.265Z,61.97
2023-10-09T07:54:33.225Z,70.07
2023-10-09T07:56:42.329Z,76.53
2023-10-09T07:58:48.578Z,71.17
2023-10-09T08:01:05.513Z,57.60
2023-10-09T08:03:25.193Z,66.00
2023-10-09T08:05:34.329Z,68.30
2023-10-09T08:08:06.734Z,59.13
2023-10-09T08:10:14.332Z,59.20
2023-10-09T08:12:31.514Z,66.53
2023-10-09T08:14:49.801Z,59.60
2023-10-09T08:17:06.983Z,54.57
2023-10-09T08:19:33.587Z,50.67
2023-10-09T08:21:43.177Z,56.90
2023-10-09T08:23:50.362Z,55.03
2023-10-09T08:26:13.597Z,56.00
2023-10-09T08:28:40.810Z,62.90
2023-10-09T08:30:50.807Z,54.50
2023-10-09T08:35:30.407Z,60.27
2023-10-09T08:37:32.488Z,51.80
2023-10-09T08:39:37.654Z,47.20
2023-10-09T08:41:41.954Z,52.57
2023-10-09T08:43:52.213Z,52.67
2023-10-09T08:45:58.725Z,53.43
2023-10-09T08:48:05.965Z,48.97
2023-10-09T08:50:14.447Z,57.43
2023-10-09T08:52:17.346Z,63.93
2023-10-09T08:54:20.260Z,51.30
2023-10-09T08:56:24.208Z,62.43
2023-10-09T08:58:32.235Z,60.90
2023-10-09T09:00:35.335Z,57.03
2023-10-09T09:02:38.581Z,58.83
2023-10-09T09:04:42.181Z,61.23
2023-10-09T09:06:46.527Z,60.10
2023-10-09T09:08:49.531Z,63.90
2023-10-09T09:10:59.426Z,61.27
2023-10-09T09:13:04.711Z,71.07
2023-10-09T09:15:19.804Z,58.03
2023-10-09T09:17:31.810Z,56.30
2023-10-09T09:19:39.078Z,60.83
2023-10-09T09:21:44.162Z,62.00
2023-10-09T09:23:55.850Z,55.70
2023-10-09T09:26:02.232Z,63.03
2023-10-09T09:28:11.146Z,62.53
2023-10-09T09:30:25.071Z,56.63
2023-10-09T09:32:37.698Z,60.43
2023-10-09T09:34:49.002Z,55.57
2023-10-09T09:36:55.549Z,63.87
2023-10-09T09:39:02.451Z,58.43
2023-10-09T09:41:08.517Z,65.80
2023-10-09T09:43:23.021Z,60.40
2023-10-09T09:45:26.007Z,67.67
2023-10-09T09:47:28.652Z,59.20
2023-10-09T09:49:33.794Z,70.83
2023-10-09T09:51:35.812Z,65.10
2023-10-09T09:53:38.724Z,72.70
2023-10-09T09:55:43.840Z,63.73
2023-10-09T09:57:52.719Z,65.77
2023-10-09T09:59:57.900Z,73.10
2023-10-09T10:02:08.164Z,68.10
2023-10-09T10:04:14.941Z,63.90
2023-10-09T10:06:20.191Z,73.80
2023-10-09T10:08:22.804Z,63.30
2023-10-09T10:10:48.978Z,63.60
2023-10-09T10:13:02.713Z,67.33
2023-10-09T10:15:15.925Z,63.87
2023-10-09T10:17:20.095Z,70.80
2023-10-09T10:19:25.074Z,76.83
2023-10-09T10:21:41.274Z,68.33
2023-10-09T10:23:48.147Z,61.03
2023-10-09T10:25:51.465Z,64.20
2023-10-09T10:28:13.787Z,64.70
2023-10-09T10:30:38.153Z,63.77
2023-10-09T10:32:54.967Z,69.80
2023-10-09T10:34:58.382Z,56.47
2023-10-09T10:37:01.412Z,63.30
2023-10-09T10:39:05.749Z,68.20
2023-10-09T10:41:13.688Z,61.47
2023-10-09T10:43:33.119Z,62.93
2023-10-09T10:45:39.491Z,60.47
2023-10-09T10:47:43.377Z,76.27
2023-10-09T10:49:50.363Z,58.23
2023-10-09T10:52:02.578Z,56.93
2023-10-09T10:54:20.213Z,64.00
2023-10-09T10:56:35.837Z,61.47
2023-10-09T10:58:48.535Z,61.80
2023-10-09T11:01:13.204Z,53.40
2023-10-09T11:03:25.072Z,51.37
2023-10-09T11:05:27.394Z,51.60
2023-10-09T11:07:30.531Z,62.20
2023-10-09T11:09:52.129Z,56.90
2023-10-09T11:12:13.072Z,50.00
2023-10-09T11:14:18.685Z,54.07
2023-10-09T11:16:30.341Z,55.27
2023-10-09T11:18:33.372Z,60.72
2023-10-09T11:20:36.024Z,54.30
2023-10-09T11:22:40.384Z,61.37
2023-10-09T11:24:44.714Z,59.30
2023-10-09T11:26:55.220Z,57.97
2023-10-09T11:29:14.788Z,55.23
2023-10-09T11:31:19.094Z,62.53
2023-10-09T11:33:22.572Z,60.67
2023-10-09T11:35:29.568Z,53.40
2023-10-09T11:37:40.460Z,48.70
2023-10-09T11:39:55.912Z,44.87
2023-10-09T11:42:05.475Z,38.97
2023-10-09T11:44:08.980Z,43.67
2023-10-09T11:46:14.968Z,51.17
2023-10-09T11:48:34.471Z,43.90
2023-10-09T11:50:44.228Z,42.63
2023-10-09T11:53:13.804Z,40.00
2023-10-09T11:55:17.606Z,43.93
2023-10-09T11:57:19.545Z,45.17
2023-10-09T11:59:24.613Z,44.77
2023-10-09T12:01:36.535Z,41.03
2023-10-09T12:03:41.075Z,39.40
2023-10-09T12:05:45.988Z,41.17
2023-10-09T12:07:52.313Z,41.50
2023-10-09T12:09:57.633Z,47.30
2023-10-09T12:12:04.217Z,44.30
2023-10-09T12:14:07.354Z,54.00
2023-10-09T12:16:11.252Z,42.63
2023-10-09T12:18:16.063Z,44.17
2023-10-09T12:20:32.135Z,43.87
2023-10-09T12:22:35.064Z,49.27
2023-10-09T12:24:38.634Z,46.20
2023-10-09T12:26:43.795Z,40.60
2023-10-09T12:28:48.001Z,40.27
2023-10-09T12:30:52.421Z,49.90
2023-10-09T12:32:55.007Z,51.20
2023-10-09T12:34:57.987Z,45.97
2023-10-09T12:37:02.845Z,55.40
2023-10-09T12:39:06.809Z,63.70
2023-10-09T12:41:19.277Z,54.30
2023-10-09T12:43:23.116Z,51.37
2023-10-09T12:45:27.879Z,48.50
2023-10-09T12:47:31.378Z,54.10
2023-10-09T12:49:35.133Z,48.57
2023-10-09T12:51:38.015Z,52.87
2023-10-09T12:53:42.544Z,49.57
2023-10-09T12:55:45.569Z,53.10
2023-10-09T12:57:49.447Z,45.47
2023-10-09T12:59:52.414Z,44.77
2023-10-09T13:01:59.350Z,49.50
2023-10-09T13:04:01.593Z,47.27
2023-10-09T13:06:08.390Z,97.67
2023-10-09T13:08:12.953Z,140.03
2023-10-09T13:10:17.283Z,43.80
2023-10-09T13:12:20.379Z,50.10
2023-10-09T13:14:24.056Z,45.40
2023-10-09T13:16:28.825Z,47.47
2023-10-09T13:18:31.020Z,37.13
2023-10-09T13:20:33.990Z,44.30
2023-10-09T13:22:38.142Z,46.90
2023-10-09T13:24:41.292Z,46.90
2023-10-09T13:26:47.554Z,38.63
2023-10-09T13:28:51.091Z,41.67
2023-10-09T13:30:54.169Z,38.93
2023-10-09T13:32:57.070Z,38.83
2023-10-09T13:35:03.236Z,43.53
2023-10-09T13:37:12.636Z,43.20
2023-10-09T13:39:23.485Z,35.30
2023-10-09T13:41:30.413Z,35.33
2023-10-09T13:43:36.064Z,38.30
2023-10-09T13:45:41.685Z,38.47
2023-10-09T13:47:46.016Z,36.00
2023-10-09T13:49:51.775Z,36.37
2023-10-09T13:51:57.679Z,31.37
2023-10-09T13:54:00.586Z,39.53
2023-10-09T13:56:07.515Z,53.03
2023-10-09T13:58:14.753Z,47.97
2023-10-09T14:00:33.546Z,41.83
2023-10-09T14:02:36.540Z,33.17
2023-10-09T14:04:39.722Z,40.47
2023-10-09T14:06:45.782Z,38.90
2023-10-09T14:08:48.953Z,34.47
2023-10-09T14:10:51.877Z,31.97
2023-10-09T14:12:55.300Z,37.70
2023-10-09T14:14:58.290Z,36.45
2023-10-09T14:17:02.721Z,32.43
2023-10-09T14:19:08.569Z,30.00
2023-10-09T14:21:17.262Z,32.73
2023-10-09T14:23:22.632Z,34.63
2023-10-09T14:25:25.573Z,32.07
2023-10-09T14:27:30.950Z,39.23
2023-10-09T14:29:34.061Z,36.30
2023-10-09T14:31:40.136Z,37.63
2023-10-09T14:33:49.329Z,36.90
2023-10-09T14:35:53.861Z,34.57
2023-10-09T14:37:57.062Z,30.57
2023-10-09T14:40:00.860Z,34.63
2023-10-09T14:42:10.769Z,36.37
2023-10-09T14:44:17.677Z,31.33
2023-10-09T14:46:26.206Z,32.73
2023-10-09T14:48:29.665Z,28.10
2023-10-09T14:50:39.074Z,33.20
2023-10-09T14:52:42.139Z,30.53
2023-10-09T14:54:45.718Z,32.33
2023-10-09T14:56:48.599Z,33.73
2023-10-09T14:58:51.174Z,32.30
2023-10-09T15:00:55.197Z,38.10
2023-10-09T15:02:57.266Z,38.23
2023-10-09T15:05:00.314Z,36.43
2023-10-09T15:07:07.872Z,35.20
2023-10-09T15:09:11.168Z,37.13
2023-10-09T15:11:13.108Z,33.23
2023-10-09T15:13:17.315Z,30.73
2023-10-09T15:15:26.374Z,43.13
2023-10-09T15:17:29.272Z,40.63
2023-10-09T15:19:32.343Z,40.53
2023-10-09T15:21:35.620Z,35.97
2023-10-09T15:23:39.942Z,36.70
2023-10-09T15:25:46.085Z,35.47
2023-10-09T15:27:49.025Z,34.60
2023-10-09T15:29:51.896Z,33.50
2023-10-09T15:31:54.904Z,30.20
2023-10-09T15:33:58.766Z,22.23
2023-10-09T15:36:01.662Z,17.03
2023-10-09T15:38:05.319Z,22.83
2023-10-09T15:40:15.365Z,24.17
2023-10-09T15:42:18.737Z,29.23
2023-10-09T15:44:28.035Z,19.13
2023-10-09T15:46:35.465Z,21.03
2023-10-09T15:48:38.629Z,19.83
2023-10-09T15:50:41.588Z,16.47
2023-10-09T15:52:44.532Z,21.50
2023-10-09T15:54:49.148Z,13.60
2023-10-09T15:57:10.010Z,29.83
2023-10-09T15:59:17.861Z,19.00
2023-10-09T16:01:21.004Z,13.90
2023-10-09T16:03:25.369Z,10.93
2023-10-09T16:05:28.349Z,9.77
2023-10-09T16:07:31.248Z,18.53
2023-10-09T16:09:38.582Z,11.60
2023-10-09T16:11:41.689Z,19.70
2023-10-09T16:13:46.012Z,18.13
2023-10-09T16:15:49.703Z,21.50
2023-10-09T16:17:59.654Z,16.00
2023-10-09T16:20:03.195Z,16.30
2023-10-09T16:22:06.720Z,8.07
2023-10-09T16:24:11.212Z,11.00
2023-10-09T16:26:14.120Z,17.93
2023-10-09T16:28:17.536Z,12.47
2023-10-09T16:30:22.053Z,9.23
2023-10-09T16:32:25.285Z,10.47
2023-10-09T16:34:28.255Z,17.13
2023-10-09T16:36:31.711Z,16.83
2023-10-09T16:38:36.792Z,18.33
2023-10-09T16:40:39.903Z,13.97
2023-10-09T16:42:43.529Z,20.47
2023-10-09T16:44:47.370Z,15.40
2023-10-09T16:46:55.377Z,18.50
2023-10-09T16:49:00.266Z,11.80
2023-10-09T16:51:08.507Z,13.80
2023-10-09T16:53:12.684Z,15.80
2023-10-09T16:55:16.224Z,21.20
2023-10-09T16:57:19.418Z,19.70
2023-10-09T16:59:23.641Z,21.63
2023-10-09T17:01:28.704Z,16.07
2023-10-09T17:03:33.340Z,17.30
2023-10-09T17:05:37.824Z,12.07
2023-10-09T17:07:42.652Z,15.40
2023-10-09T17:09:49.034Z,13.10
2023-10-09T17:11:53.238Z,13.07
2023-10-09T17:13:58.792Z,21.00
2023-10-09T17:16:03.583Z,17.00
2023-10-09T17:18:07.979Z,18.40
2023-10-09T17:20:13.212Z,20.70
2023-10-09T17:22:16.109Z,15.83
2023-10-09T17:24:21.609Z,17.40
2023-10-09T17:26:24.699Z,20.73
2023-10-09T17:28:27.643Z,14.87
2023-10-09T17:30:33.633Z,13.03
2023-10-09T17:32:36.672Z,17.37
2023-10-09T17:34:40.901Z,27.10
2023-10-09T17:36:47.265Z,20.63
2023-10-09T17:38:51.949Z,15.77
2023-10-09T17:40:54.910Z,16.93
2023-10-09T17:42:57.147Z,24.37
2023-10-09T17:45:00.731Z,19.30
2023-10-09T17:47:03.708Z,14.80
2023-10-09T17:49:07.872Z,18.60
2023-10-09T17:51:10.865Z,16.40
2023-10-09T17:53:15.294Z,30.53
2023-10-09T17:55:18.995Z,17.63
2023-10-09T17:57:22.416Z,16.90
2023-10-09T17:59:25.556Z,20.07
2023-10-09T18:01:30.798Z,24.17
2023-10-09T18:03:33.853Z,15.47
2023-10-09T18:05:36.892Z,22.00
2023-10-09T18:07:40.193Z,19.73
2023-10-09T18:09:45.162Z,25.63
2023-10-09T18:11:49.364Z,21.07
2023-10-09T18:13:51.557Z,23.30
2023-10-09T18:16:08.825Z,21.40
2023-10-09T18:18:20.495Z,29.65
2023-10-09T18:20:23.462Z,22.00
2023-10-09T18:22:27.406Z,22.50
2023-10-09T18:24:30.319Z,24.50
2023-10-09T18:26:35.598Z,21.43
2023-10-09T18:28:38.264Z,29.80
2023-10-09T18:30:43.135Z,24.33
2023-10-09T18:32:46.840Z,25.50
2023-10-09T18:34:49.809Z,21.80
2023-10-09T18:36:53.449Z,16.83
2023-10-09T18:38:56.629Z,36.30
2023-10-09T18:41:01.689Z,27.37
2023-10-09T18:43:09.447Z,23.17
2023-10-09T18:45:16.473Z,18.30
2023-10-09T18:47:20.414Z,21.40
2023-10-09T18:49:23.801Z,20.00
2023-10-09T18:51:30.438Z,21.07
2023-10-09T18:53:35.364Z,22.53
2023-10-09T18:55:38.451Z,19.70
2023-10-09T18:57:41.601Z,26.77
2023-10-09T18:59:45.829Z,34.90
2023-10-09T19:01:48.872Z,22.03
2023-10-09T19:03:51.910Z,25.83
2023-10-09T19:05:55.114Z,23.67
2023-10-09T19:07:58.024Z,28.37
2023-10-09T19:10:01.549Z,16.80
2023-10-09T19:12:09.184Z,18.10
2023-10-09T19:14:12.815Z,16.10
2023-10-09T19:16:17.283Z,26.77
2023-10-09T19:18:20.515Z,18.33
2023-10-09T19:20:23.576Z,19.80
2023-10-09T19:22:27.618Z,27.37
2023-10-09T19:24:31.773Z,23.67
2023-10-09T19:26:35.535Z,22.93
2023-10-09T19:28:38.987Z,23.60
2023-10-09T19:30:41.034Z,16.10
2023-10-09T19:32:48.407Z,16.13
2023-10-09T19:34:52.843Z,28.73
2023-10-09T19:36:56.334Z,17.90
2023-10-09T19:39:01.045Z,21.10
2023-10-09T19:41:03.968Z,20.60
2023-10-09T19:43:06.920Z,21.30
2023-10-09T19:45:11.497Z,19.73
2023-10-09T19:47:14.405Z,21.17
2023-10-09T19:49:18.818Z,27.93
2023-10-09T19:51:21.268Z,15.83
2023-10-09T19:53:25.811Z,21.17
2023-10-09T19:55:28.756Z,25.00
2023-10-09T19:57:32.391Z,20.50
2023-10-09T19:59:36.454Z,16.90
2023-10-09T20:01:41.272Z,34.40
2023-10-09T20:03:44.533Z,24.17
2023-10-09T20:05:49.603Z,19.37
2023-10-09T20:07:54.059Z,28.53
2023-10-09T20:09:59.357Z,20.40
2023-10-09T20:12:02.894Z,18.03
2023-10-09T20:14:05.830Z,14.77
2023-10-09T20:16:09.895Z,13.30
2023-10-09T20:18:13.024Z,17.60
2023-10-09T20:20:16.031Z,21.63
2023-10-09T20:22:20.267Z,18.67
2023-10-09T20:24:25.893Z,19.23
2023-10-09T20:26:28.855Z,20.97
2023-10-09T20:28:31.918Z,21.90
2023-10-09T20:30:36.560Z,23.08
2023-10-09T20:32:40.068Z,16.70
2023-10-09T20:34:44.802Z,25.40
2023-10-09T20:36:47.703Z,28.77
2023-10-09T20:38:50.941Z,17.93
2023-10-09T20:40:54.060Z,26.67
2023-10-09T20:42:57.663Z,18.07
2023-10-09T20:45:01.623Z,12.43
2023-10-09T20:47:04.630Z,24.50
2023-10-09T20:49:07.566Z,22.50
2023-10-09T20:51:11.616Z,14.00
2023-10-09T20:53:15.074Z,15.43
2023-10-09T20:55:21.164Z,12.43
2023-10-09T20:57:24.059Z,20.73
2023-10-09T20:59:27.619Z,16.88
2023-10-09T21:01:31.053Z,18.37
2023-10-09T21:03:33.153Z,16.63
2023-10-09T21:05:36.731Z,9.50
2023-10-09T21:07:39.637Z,19.77
2023-10-09T21:09:42.530Z,12.03
2023-10-09T21:11:47.911Z,14.33
2023-10-09T21:13:50.860Z,12.83
2023-10-09T21:15:53.773Z,12.93
2023-10-09T21:17:56.818Z,22.07
2023-10-09T21:19:59.823Z,28.37
2023-10-09T21:22:01.793Z,11.80
2023-10-09T21:24:05.005Z,19.13
2023-10-09T21:26:07.926Z,24.73
2023-10-09T21:28:12.182Z,17.00
2023-10-09T21:30:16.703Z,13.30
2023-10-09T21:32:19.698Z,13.43
2023-10-09T21:34:23.028Z,23.33
2023-10-09T21:36:25.965Z,16.70
2023-10-09T21:38:29.096Z,14.80
2023-10-09T21:40:32.052Z,18.00
2023-10-09T21:42:33.942Z,22.87
2023-10-09T21:44:39.202Z,13.70
2023-10-09T21:46:43.598Z,17.73
2023-10-09T21:48:46.486Z,16.57
2023-10-09T21:50:49.381Z,14.03
2023-10-09T21:52:52.282Z,15.83
2023-10-09T21:54:55.222Z,14.73
2023-10-09T21:56:59.068Z,8.10
2023-10-09T21:59:04.311Z,13.23
2023-10-09T22:01:10.916Z,16.90
2023-10-09T22:03:13.936Z,11.90
2023-10-09T22:05:20.403Z,15.10
2023-10-09T22:07:32.491Z,17.43
2023-10-09T22:09:36.026Z,10.50
2023-10-09T22:11:38.953Z,19.03
2023-10-09T22:13:41.840Z,10.37
2023-10-09T22:15:44.870Z,9.67
2023-10-09T22:17:49.514Z,10.00
2023-10-09T22:19:52.480Z,16.73
2023-10-09T22:21:57.428Z,16.07
2023-10-09T22:24:00.312Z,12.80
2023-10-09T22:26:05.065Z,11.18
2023-10-09T22:28:10.359Z,25.20
2023-10-09T22:30:13.649Z,19.07
2023-10-09T22:32:17.910Z,13.63
2023-10-09T22:34:22.214Z,17.67
2023-10-09T22:36:42.255Z,11.90
2023-10-09T22:38:56.123Z,12.97
2023-10-09T22:41:07.101Z,11.50
2023-10-09T22:43:10.450Z,17.70
2023-10-09T22:45:12.710Z,19.83
2023-10-09T22:47:15.795Z,9.87
2023-10-09T22:49:18.697Z,20.63
2023-10-09T22:51:25.449Z,15.20
2023-10-09T22:53:38.776Z,16.30
2023-10-09T22:55:45.286Z,18.87
2023-10-09T22:57:55.715Z,13.40
2023-10-09T23:00:01.650Z,14.43
2023-10-09T23:02:05.348Z,11.13
2023-10-09T23:04:17.454Z,14.00
2023-10-09T23:06:34.270Z,13.57
2023-10-09T23:08:38.732Z,20.63
2023-10-09T23:10:50.658Z,12.53
2023-10-09T23:12:53.606Z,13.33
2023-10-09T23:14:57.059Z,34.73
2023-10-09T23:17:00.208Z,14.00
2023-10-09T23:19:29.604Z,13.73
2023-10-09T23:21:36.493Z,13.87
2023-10-09T23:23:42.088Z,14.93
2023-10-09T23:25:51.086Z,24.13
2023-10-09T23:27:58.296Z,11.23
2023-10-09T23:30:06.704Z,9.27
2023-10-09T23:32:23.414Z,10.83
2023-10-09T23:34:33.430Z,14.53
2023-10-09T23:36:43.140Z,14.70
2023-10-09T23:39:07.998Z,14.33
2023-10-09T23:41:11.284Z,10.80
2023-10-09T23:43:17.250Z,14.30
2023-10-09T23:45:21.923Z,12.60
2023-10-09T23:47:32.951Z,11.03
2023-10-09T23:49:39.373Z,21.20
2023-10-09T23:51:41.314Z,18.20
2023-10-09T23:53:52.898Z,8.93
2023-10-09T23:56:03.914Z,10.90
2023-10-09T23:58:17.376Z,22.90
